createdAt,value
2022-12-04T00:02:15.937Z,30.45
2022-12-04T00:04:42.911Z,31.33
2022-12-04T00:07:09.910Z,31.83
2022-12-04T00:09:36.841Z,33.15
2022-12-04T00:12:04.002Z,27.45
2022-12-04T00:14:31.236Z,27.17
2022-12-04T00:16:58.548Z,31.30
2022-12-04T00:19:25.523Z,29.88
2022-12-04T00:21:52.557Z,32.08
2022-12-04T00:24:19.519Z,30.33
2022-12-04T00:26:46.443Z,29.45
2022-12-04T00:29:13.464Z,28.33
2022-12-04T00:31:40.860Z,28.50
2022-12-04T00:34:08.453Z,33.30
2022-12-04T00:36:35.506Z,29.60
2022-12-04T00:39:03.057Z,28.30
2022-12-04T00:41:31.427Z,29.70
2022-12-04T00:44:02.503Z,29.63
2022-12-04T00:46:30.193Z,32.30
2022-12-04T00:48:59.048Z,28.58
2022-12-04T00:51:26.528Z,28.85
2022-12-04T00:53:54.312Z,33.10
2022-12-04T00:56:24.839Z,28.98
2022-12-04T00:58:57.037Z,29.48
2022-12-04T01:01:25.652Z,29.40
2022-12-04T01:03:53.803Z,29.98
2022-12-04T01:06:24.182Z,32.40
2022-12-04T01:08:53.646Z,30.80
2022-12-04T01:11:21.618Z,31.30
2022-12-04T01:13:49.109Z,28.73
2022-12-04T01:16:24.591Z,28.33
2022-12-04T01:18:52.209Z,32.72
2022-12-04T01:21:19.163Z,32.40
2022-12-04T01:23:46.432Z,33.03
2022-12-04T01:26:13.420Z,35.13
2022-12-04T01:28:40.570Z,30.42
2022-12-04T01:31:13.414Z,29.25
2022-12-04T01:33:41.613Z,31.13
2022-12-04T01:36:11.418Z,37.15
2022-12-04T01:38:38.994Z,31.30
2022-12-04T01:41:06.538Z,30.23
2022-12-04T01:43:36.035Z,32.05
2022-12-04T01:46:03.570Z,29.55
2022-12-04T01:48:52.043Z,34.17
2022-12-04T01:51:23.830Z,30.70
2022-12-04T01:53:56.042Z,27.70
2022-12-04T01:56:29.486Z,33.50
2022-12-04T01:58:58.927Z,31.10
2022-12-04T02:01:31.858Z,30.75
2022-12-04T02:04:00.743Z,33.10
2022-12-04T02:06:27.634Z,32.83
2022-12-04T02:08:54.620Z,31.52
2022-12-04T02:11:38.022Z,30.35
2022-12-04T02:14:13.549Z,33.85
2022-12-04T02:16:56.528Z,31.52
2022-12-04T02:20:05.410Z,33.60
2022-12-04T02:23:07.934Z,34.22
2022-12-04T02:26:07.135Z,33.17
2022-12-04T02:28:56.227Z,35.25
2022-12-04T02:31:30.930Z,37.80
2022-12-04T02:34:14.390Z,37.42
2022-12-04T02:36:49.138Z,32.87
2022-12-04T02:39:21.517Z,35.53
2022-12-04T02:41:57.775Z,38.33
2022-12-04T02:44:30.601Z,38.58
2022-12-04T02:47:02.418Z,41.67
2022-12-04T02:49:37.973Z,39.33
2022-12-04T02:52:10.617Z,39.10
2022-12-04T02:54:45.174Z,42.17
2022-12-04T02:57:16.930Z,42.17
2022-12-04T02:59:46.342Z,40.90
2022-12-04T03:02:28.075Z,46.40
2022-12-04T03:04:58.143Z,39.85
2022-12-04T03:07:34.309Z,42.55
2022-12-04T03:10:06.415Z,46.88
2022-12-04T03:12:42.143Z,41.80
2022-12-04T03:15:18.016Z,38.85
2022-12-04T03:17:57.690Z,40.45
2022-12-04T03:20:25.856Z,44.55
2022-12-04T03:22:59.978Z,44.08
2022-12-04T03:25:35.251Z,42.90
2022-12-04T03:28:08.141Z,42.33
2022-12-04T03:30:45.811Z,41.75
2022-12-04T03:33:18.276Z,44.65
2022-12-04T03:35:57.282Z,45.92
2022-12-04T03:38:39.286Z,46.90
2022-12-04T03:41:29.563Z,44.47
2022-12-04T03:44:27.762Z,45.38
2022-12-04T03:47:14.885Z,40.40
2022-12-04T03:49:51.912Z,43.03
2022-12-04T03:52:28.062Z,40.35
2022-12-04T03:55:03.135Z,43.38
2022-12-04T03:57:37.254Z,43.72
2022-12-04T04:02:39.852Z,39.00
2022-12-04T04:05:10.009Z,37.47
2022-12-04T04:08:23.866Z,42.78
2022-12-04T04:10:53.480Z,44.42
2022-12-04T04:13:44.391Z,39.78
2022-12-04T04:16:34.919Z,40.50
2022-12-04T04:19:22.484Z,37.67
2022-12-04T04:22:11.198Z,44.25
2022-12-04T04:24:59.762Z,42.10
2022-12-04T04:27:26.731Z,43.72
2022-12-04T04:29:54.077Z,40.15
2022-12-04T04:32:37.017Z,44.10
2022-12-04T04:35:28.622Z,38.45
2022-12-04T04:38:15.043Z,40.17
2022-12-04T04:40:58.087Z,39.65
2022-12-04T04:43:47.641Z,38.85
2022-12-04T04:46:21.309Z,44.78
2022-12-04T04:48:52.134Z,42.92
2022-12-04T04:51:20.431Z,41.50
2022-12-04T04:53:51.079Z,36.38
2022-12-04T04:56:19.324Z,41.72
2022-12-04T04:58:46.262Z,44.00
2022-12-04T05:01:22.880Z,44.47
2022-12-04T05:03:49.901Z,41.38
2022-12-04T05:06:16.827Z,44.22
2022-12-04T05:08:44.425Z,63.45
2022-12-04T05:11:14.094Z,44.53
2022-12-04T05:13:41.718Z,42.92
2022-12-04T05:16:12.528Z,45.28
2022-12-04T05:18:40.131Z,44.28
2022-12-04T05:21:16.535Z,44.80
2022-12-04T05:23:43.771Z,50.42
2022-12-04T05:26:12.118Z,43.10
2022-12-04T05:28:41.107Z,45.72
2022-12-04T05:31:08.171Z,43.95
2022-12-04T05:33:35.177Z,47.80
2022-12-04T05:36:09.673Z,44.25
2022-12-04T05:38:37.247Z,40.22
2022-12-04T05:41:06.061Z,39.55
2022-12-04T05:43:34.048Z,45.00
2022-12-04T05:46:02.613Z,46.00
2022-12-04T05:48:29.764Z,43.00
2022-12-04T05:50:56.734Z,42.97
2022-12-04T05:53:24.235Z,46.05
2022-12-04T05:55:58.803Z,41.65
2022-12-04T05:58:26.317Z,43.05
2022-12-04T06:00:53.379Z,41.92
2022-12-04T06:03:20.773Z,44.88
2022-12-04T06:05:47.908Z,45.53
2022-12-04T06:08:15.057Z,50.92
2022-12-04T06:10:42.270Z,51.92
2022-12-04T06:13:09.212Z,48.75
2022-12-04T06:15:39.758Z,50.92
2022-12-04T06:18:07.046Z,54.78
2022-12-04T06:20:34.586Z,59.47
2022-12-04T06:23:01.850Z,48.97
2022-12-04T06:25:28.903Z,52.90
2022-12-04T06:27:55.972Z,49.30
2022-12-04T06:30:23.290Z,47.38
2022-12-04T06:32:50.291Z,53.90
2022-12-04T06:35:17.235Z,56.97
2022-12-04T06:37:44.257Z,51.75
2022-12-04T06:40:11.623Z,48.58
2022-12-04T06:42:38.795Z,49.85
2022-12-04T06:45:06.666Z,45.00
2022-12-04T06:47:36.289Z,41.90
2022-12-04T06:50:04.742Z,48.78
2022-12-04T06:52:33.951Z,50.20
2022-12-04T06:55:01.011Z,46.88
2022-12-04T06:57:27.933Z,48.53
2022-12-04T06:59:55.155Z,49.45
2022-12-04T07:02:22.970Z,50.17
2022-12-04T07:04:50.002Z,49.25
2022-12-04T07:07:16.913Z,49.97
2022-12-04T07:09:45.660Z,49.15
2022-12-04T07:12:12.611Z,49.30
2022-12-04T07:14:39.692Z,47.55
2022-12-04T07:17:06.753Z,47.75
2022-12-04T07:19:33.743Z,51.25
2022-12-04T07:22:00.649Z,48.65
2022-12-04T07:24:27.657Z,46.63
2022-12-04T07:26:54.615Z,49.65
2022-12-04T07:29:21.567Z,50.28
2022-12-04T07:31:49.062Z,50.03
2022-12-04T07:34:16.041Z,50.13
2022-12-04T07:36:42.979Z,49.92
2022-12-04T07:39:10.425Z,46.08
2022-12-04T07:41:37.443Z,48.13
2022-12-04T07:44:07.385Z,45.05
2022-12-04T07:46:34.496Z,45.40
2022-12-04T07:49:01.457Z,46.72
2022-12-04T07:51:29.926Z,45.28
2022-12-04T07:54:02.625Z,52.75
2022-12-04T07:56:30.081Z,52.73
2022-12-04T07:58:57.030Z,47.20
2022-12-04T08:01:24.628Z,48.50
2022-12-04T08:03:55.078Z,48.83
2022-12-04T08:06:24.389Z,48.08
2022-12-04T08:08:52.750Z,54.38
2022-12-04T08:11:24.545Z,48.78
2022-12-04T08:13:59.600Z,55.25
2022-12-04T08:16:28.119Z,59.17
2022-12-04T08:18:55.713Z,51.75
2022-12-04T08:21:25.259Z,53.00
2022-12-04T08:23:54.714Z,56.90
2022-12-04T08:26:23.918Z,52.88
2022-12-04T08:28:54.500Z,50.63
2022-12-04T08:31:26.913Z,48.88
2022-12-04T08:33:55.747Z,51.53
2022-12-04T08:36:23.237Z,48.28
2022-12-04T08:38:51.071Z,48.55
2022-12-04T08:41:21.414Z,53.47
2022-12-04T08:43:48.417Z,44.53
2022-12-04T08:46:19.179Z,51.80
2022-12-04T08:48:47.256Z,45.90
2022-12-04T08:51:22.695Z,52.75
2022-12-04T08:53:54.285Z,55.90
2022-12-04T08:56:21.344Z,54.72
2022-12-04T08:58:48.628Z,47.95
2022-12-04T09:01:16.036Z,54.35
2022-12-04T09:03:43.729Z,59.42
2022-12-04T09:06:13.095Z,51.67
2022-12-04T09:08:40.790Z,52.50
2022-12-04T09:11:12.189Z,47.53
2022-12-04T09:13:40.660Z,49.22
2022-12-04T09:16:14.714Z,47.63
2022-12-04T09:21:11.210Z,44.25
2022-12-04T09:23:39.366Z,45.75
2022-12-04T09:26:19.124Z,49.20
2022-12-04T09:28:46.914Z,49.33
2022-12-04T09:31:13.979Z,49.58
2022-12-04T09:33:41.124Z,47.88
2022-12-04T09:36:08.319Z,49.35
2022-12-04T09:38:35.308Z,48.30
2022-12-04T09:41:13.505Z,48.88
2022-12-04T09:44:00.726Z,44.33
2022-12-04T09:46:38.382Z,57.30
2022-12-04T09:49:21.420Z,52.58
2022-12-04T09:51:49.782Z,45.95
2022-12-04T09:54:20.947Z,49.75
2022-12-04T09:56:55.774Z,44.08
2022-12-04T09:59:26.777Z,47.10
2022-12-04T10:02:18.839Z,42.22
2022-12-04T10:04:45.980Z,46.85
2022-12-04T10:07:26.425Z,45.90
2022-12-04T10:09:59.337Z,44.25
2022-12-04T10:12:49.337Z,43.58
2022-12-04T10:15:35.185Z,41.90
2022-12-04T10:18:27.761Z,39.03
2022-12-04T10:21:26.984Z,40.77
2022-12-04T10:24:18.339Z,43.30
2022-12-04T10:26:47.203Z,41.13
2022-12-04T10:29:22.369Z,39.22
2022-12-04T10:31:51.860Z,47.10
2022-12-04T10:34:25.754Z,52.65
2022-12-04T10:36:55.209Z,46.92
2022-12-04T10:39:26.755Z,45.88
2022-12-04T10:42:29.034Z,44.05
2022-12-04T10:44:56.828Z,51.53
2022-12-04T10:47:24.840Z,49.88
2022-12-04T10:50:02.709Z,45.78
2022-12-04T10:52:29.699Z,42.38
2022-12-04T10:55:00.912Z,42.20
2022-12-04T10:57:46.546Z,43.92
2022-12-04T11:00:33.846Z,39.53
2022-12-04T11:03:04.229Z,42.00
2022-12-04T11:05:44.361Z,42.95
2022-12-04T11:08:22.540Z,45.53
2022-12-04T11:10:59.147Z,40.65
2022-12-04T11:13:26.585Z,42.60
2022-12-04T11:15:55.685Z,42.10
2022-12-04T11:18:30.075Z,43.58
2022-12-04T11:21:00.990Z,44.00
2022-12-04T11:23:32.486Z,45.53
2022-12-04T11:26:05.566Z,42.65
2022-12-04T11:28:41.552Z,44.45
2022-12-04T11:31:15.786Z,40.13
2022-12-04T11:33:54.359Z,40.92
2022-12-04T11:36:24.914Z,42.95
2022-12-04T11:38:54.412Z,45.92
2022-12-04T11:41:32.211Z,39.70
2022-12-04T11:44:01.115Z,39.80
2022-12-04T11:46:32.690Z,38.50
2022-12-04T11:49:00.658Z,45.50
2022-12-04T11:51:48.523Z,40.45
2022-12-04T11:54:23.070Z,38.80
2022-12-04T11:57:05.120Z,45.35
2022-12-04T11:59:47.500Z,37.03
2022-12-04T12:02:36.544Z,41.38
2022-12-04T12:05:32.122Z,42.78
2022-12-04T12:08:24.701Z,41.22
2022-12-04T12:11:04.394Z,44.28
2022-12-04T12:14:16.340Z,36.92
2022-12-04T12:16:55.214Z,43.70
2022-12-04T12:19:31.082Z,38.65
2022-12-04T12:22:00.778Z,52.08
2022-12-04T12:24:46.978Z,46.85
2022-12-04T12:27:30.967Z,44.28
2022-12-04T12:30:08.610Z,49.78
2022-12-04T12:33:03.952Z,44.25
2022-12-04T12:35:52.619Z,43.80
2022-12-04T12:38:33.941Z,42.28
2022-12-04T12:41:06.358Z,39.38
2022-12-04T12:43:38.363Z,38.95
2022-12-04T12:46:15.709Z,42.72
2022-12-04T12:49:04.278Z,45.85
2022-12-04T12:51:34.231Z,40.85
2022-12-04T12:54:33.394Z,44.15
2022-12-04T12:57:10.406Z,39.70
2022-12-04T12:59:45.777Z,42.30
2022-12-04T13:02:44.790Z,40.00
2022-12-04T13:05:14.356Z,35.03
2022-12-04T13:07:44.363Z,38.50
2022-12-04T13:10:15.086Z,38.67
2022-12-04T13:13:11.045Z,36.65
2022-12-04T13:15:59.474Z,36.20
2022-12-04T13:18:29.438Z,35.75
2022-12-04T13:21:00.662Z,52.78
2022-12-04T13:23:57.762Z,49.47
2022-12-04T13:27:01.538Z,57.35
2022-12-04T13:29:43.387Z,41.92
2022-12-04T13:32:23.930Z,50.90
2022-12-04T13:35:35.539Z,40.60
2022-12-04T13:38:22.187Z,40.10
2022-12-04T13:40:57.861Z,42.30
2022-12-04T13:43:33.670Z,36.40
2022-12-04T13:46:25.463Z,37.85
2022-12-04T13:48:52.765Z,39.00
2022-12-04T13:51:24.018Z,37.28
2022-12-04T13:54:13.412Z,40.60
2022-12-04T13:56:46.183Z,37.15
2022-12-04T13:59:23.718Z,41.90
2022-12-04T14:02:02.212Z,36.10
2022-12-04T14:04:39.109Z,50.15
2022-12-04T14:09:41.776Z,45.33
2022-12-04T14:12:13.987Z,55.92
2022-12-04T14:14:52.446Z,44.15
2022-12-04T14:17:25.899Z,43.33
2022-12-04T14:20:00.759Z,43.53
2022-12-04T14:22:42.798Z,43.42
2022-12-04T14:25:12.723Z,42.13
2022-12-04T14:27:45.117Z,36.53
2022-12-04T14:30:25.059Z,40.78
2022-12-04T14:33:02.689Z,40.53
2022-12-04T14:35:29.864Z,40.97
2022-12-04T14:38:00.624Z,42.10
2022-12-04T14:40:31.218Z,45.33
2022-12-04T14:42:59.389Z,36.63
2022-12-04T14:45:45.439Z,43.50
2022-12-04T14:48:18.862Z,46.25
2022-12-04T14:51:18.557Z,42.00
2022-12-04T14:53:50.970Z,43.08
2022-12-04T14:57:14.227Z,41.15
2022-12-04T14:59:51.633Z,42.60
2022-12-04T15:02:43.462Z,40.05
2022-12-04T15:05:27.371Z,42.50
2022-12-04T15:08:05.933Z,44.05
2022-12-04T15:10:53.495Z,46.42
2022-12-04T15:13:31.641Z,43.72
2022-12-04T15:16:07.808Z,41.97
2022-12-04T15:18:39.430Z,42.08
2022-12-04T15:21:10.572Z,42.20
2022-12-04T15:23:41.532Z,43.83
2022-12-04T15:26:14.031Z,47.20
2022-12-04T15:28:46.781Z,44.55
2022-12-04T15:31:21.396Z,41.25
2022-12-04T15:33:52.252Z,40.60
2022-12-04T15:36:25.071Z,40.40
2022-12-04T15:38:53.102Z,42.20
2022-12-04T15:41:37.294Z,43.92
2022-12-04T15:44:23.377Z,53.03
2022-12-04T15:46:50.402Z,54.90
2022-12-04T15:49:24.805Z,46.88
2022-12-04T15:51:51.875Z,50.92
2022-12-04T15:54:25.318Z,53.40
2022-12-04T15:57:04.938Z,44.08
2022-12-04T15:59:34.598Z,45.63
2022-12-04T16:02:20.859Z,46.47
2022-12-04T16:04:48.013Z,47.47
2022-12-04T16:07:24.748Z,50.85
2022-12-04T16:10:20.604Z,46.30
2022-12-04T16:12:53.929Z,41.28
2022-12-04T16:15:21.824Z,41.83
2022-12-04T16:17:49.237Z,44.67
2022-12-04T16:20:16.311Z,41.90
2022-12-04T16:22:43.857Z,40.72
2022-12-04T16:25:12.626Z,43.63
2022-12-04T16:27:39.565Z,43.22
2022-12-04T16:30:07.062Z,43.22
2022-12-04T16:32:34.770Z,44.50
2022-12-04T16:35:01.896Z,46.97
2022-12-04T16:37:31.737Z,49.55
2022-12-04T16:39:58.907Z,47.72
2022-12-04T16:42:29.256Z,42.20
2022-12-04T16:44:56.717Z,47.72
2022-12-04T16:47:24.032Z,42.75
2022-12-04T16:49:52.306Z,43.67
2022-12-04T16:52:20.594Z,47.00
2022-12-04T16:54:47.614Z,45.47
2022-12-04T16:57:14.535Z,48.30
2022-12-04T16:59:41.538Z,47.25
2022-12-04T17:02:16.071Z,41.92
2022-12-04T17:04:43.151Z,45.47
2022-12-04T17:07:10.143Z,46.67
2022-12-04T17:09:37.186Z,44.42
2022-12-04T17:12:04.265Z,43.97
2022-12-04T17:14:31.231Z,42.55
2022-12-04T17:16:58.864Z,45.17
2022-12-04T17:19:25.881Z,45.08
2022-12-04T17:21:52.944Z,49.40
2022-12-04T17:24:19.851Z,45.45
2022-12-04T17:26:46.904Z,49.65
2022-12-04T17:29:13.842Z,41.90
2022-12-04T17:31:40.821Z,48.50
2022-12-04T17:34:07.838Z,46.17
2022-12-04T17:36:34.761Z,50.08
2022-12-04T17:39:02.059Z,45.10
2022-12-04T17:41:29.564Z,50.33
2022-12-04T17:43:59.170Z,45.20
2022-12-04T17:46:26.186Z,45.28
2022-12-04T17:48:56.808Z,43.33
2022-12-04T17:51:24.905Z,42.67
2022-12-04T17:53:52.400Z,41.88
2022-12-04T17:56:21.783Z,47.20
2022-12-04T17:58:49.063Z,42.05
2022-12-04T18:01:19.470Z,46.65
2022-12-04T18:03:58.920Z,42.83
2022-12-04T18:06:31.730Z,44.45
2022-12-04T18:08:59.184Z,41.72
2022-12-04T18:11:28.778Z,37.42
2022-12-04T18:14:07.136Z,44.33
2022-12-04T18:16:40.685Z,43.40
2022-12-04T18:19:08.098Z,41.63
2022-12-04T18:21:35.342Z,44.63
2022-12-04T18:24:04.233Z,45.42
2022-12-04T18:26:37.373Z,40.83
2022-12-04T18:29:04.866Z,45.10
2022-12-04T18:31:32.432Z,47.03
2022-12-04T18:33:59.882Z,43.60
2022-12-04T18:36:29.650Z,42.85
2022-12-04T18:38:59.074Z,43.17
2022-12-04T18:41:27.128Z,49.90
2022-12-04T18:43:54.790Z,54.85
2022-12-04T18:46:22.382Z,59.33
2022-12-04T18:48:52.922Z,57.92
2022-12-04T18:51:37.991Z,47.75
2022-12-04T18:54:09.967Z,46.30
2022-12-04T18:56:37.197Z,44.42
2022-12-04T18:59:12.713Z,42.05
2022-12-04T19:01:41.357Z,44.28
2022-12-04T19:04:10.669Z,41.85
2022-12-04T19:06:43.423Z,43.78
2022-12-04T19:09:13.310Z,43.88
2022-12-04T19:11:41.620Z,49.38
2022-12-04T19:14:20.703Z,45.53
2022-12-04T19:16:49.934Z,49.40
2022-12-04T19:19:17.799Z,51.53
2022-12-04T19:21:44.936Z,54.58
2022-12-04T19:24:12.242Z,51.60
2022-12-04T19:26:39.739Z,55.58
2022-12-04T19:29:07.411Z,61.97
2022-12-04T19:31:36.652Z,52.38
2022-12-04T19:34:04.409Z,55.35
2022-12-04T19:36:32.419Z,51.00
2022-12-04T19:39:00.344Z,52.17
2022-12-04T19:41:30.197Z,58.13
2022-12-04T19:44:00.711Z,55.90
2022-12-04T19:46:30.917Z,55.38
2022-12-04T19:49:02.130Z,52.47
2022-12-04T19:51:32.301Z,53.45
2022-12-04T19:53:59.974Z,55.85
2022-12-04T19:56:28.861Z,51.85
2022-12-04T19:58:59.501Z,52.15
2022-12-04T20:01:28.732Z,50.50
2022-12-04T20:03:56.828Z,43.13
2022-12-04T20:06:27.410Z,51.83
2022-12-04T20:08:56.830Z,52.22
2022-12-04T20:11:24.385Z,51.42
2022-12-04T20:13:55.619Z,46.83
2022-12-04T20:16:27.381Z,44.88
2022-12-04T20:18:54.896Z,49.72
2022-12-04T20:21:26.347Z,46.78
2022-12-04T20:23:54.338Z,47.72
2022-12-04T20:26:24.174Z,42.35
2022-12-04T20:28:52.203Z,51.53
2022-12-04T20:31:34.030Z,48.20
2022-12-04T20:34:03.150Z,50.60
2022-12-04T20:36:31.441Z,57.25
2022-12-04T20:38:59.525Z,48.53
2022-12-04T20:41:29.304Z,50.70
2022-12-04T20:43:59.943Z,50.97
2022-12-04T20:46:31.686Z,50.60
2022-12-04T20:49:01.222Z,55.63
2022-12-04T20:51:42.576Z,56.70
2022-12-04T20:54:14.066Z,56.10
2022-12-04T20:56:41.306Z,54.42
2022-12-04T20:59:12.633Z,53.92
2022-12-04T21:01:40.386Z,58.28
2022-12-04T21:04:07.780Z,48.60
2022-12-04T21:06:37.567Z,47.85
2022-12-04T21:09:19.919Z,49.58
2022-12-04T21:11:55.412Z,47.20
2022-12-04T21:14:43.764Z,48.92
2022-12-04T21:17:16.637Z,48.35
2022-12-04T21:19:44.315Z,44.45
2022-12-04T21:22:11.238Z,53.75
2022-12-04T21:24:39.265Z,47.33
2022-12-04T21:27:07.897Z,54.03
2022-12-04T21:29:38.428Z,52.45
2022-12-04T21:32:06.613Z,51.42
2022-12-04T21:34:33.985Z,52.40
2022-12-04T21:37:01.095Z,51.92
2022-12-04T21:39:28.042Z,52.13
2022-12-04T21:42:13.871Z,55.00
2022-12-04T21:44:40.908Z,54.97
2022-12-04T21:47:07.901Z,50.15
2022-12-04T21:49:34.810Z,52.83
2022-12-04T21:52:01.767Z,54.65
2022-12-04T21:54:29.145Z,55.60
2022-12-04T21:56:56.889Z,55.47
2022-12-04T21:59:25.029Z,56.70
2022-12-04T22:01:53.090Z,56.65
2022-12-04T22:04:20.715Z,54.40
2022-12-04T22:06:47.789Z,59.95
2022-12-04T22:09:15.066Z,52.65
2022-12-04T22:11:43.011Z,61.70
2022-12-04T22:14:11.618Z,54.22
2022-12-04T22:16:42.791Z,56.55
2022-12-04T22:19:11.621Z,53.78
2022-12-04T22:21:39.268Z,59.88
2022-12-04T22:24:06.839Z,55.35
2022-12-04T22:26:34.120Z,64.90
2022-12-04T22:29:01.165Z,51.88
2022-12-04T22:31:30.199Z,56.97
2022-12-04T22:33:59.199Z,59.15
2022-12-04T22:36:34.864Z,61.97
2022-12-04T22:39:10.399Z,56.75
2022-12-04T22:41:38.085Z,53.78
2022-12-04T22:44:05.667Z,54.08
2022-12-04T22:46:33.046Z,55.20
2022-12-04T22:49:00.338Z,52.60
2022-12-04T22:51:28.569Z,66.53
2022-12-04T22:53:58.114Z,53.33
2022-12-04T22:56:30.348Z,59.58
2022-12-04T22:58:58.502Z,61.00
2022-12-04T23:01:29.811Z,51.90
2022-12-04T23:03:57.152Z,62.00
2022-12-04T23:06:26.339Z,59.90
2022-12-04T23:09:05.507Z,57.60
2022-12-04T23:11:32.618Z,56.80
2022-12-04T23:14:02.537Z,56.35
2022-12-04T23:16:31.777Z,59.75
2022-12-04T23:18:59.331Z,54.80
2022-12-04T23:21:26.629Z,52.70
2022-12-04T23:23:54.597Z,54.92
2022-12-04T23:26:25.162Z,51.20
2022-12-04T23:28:52.278Z,50.88
2022-12-04T23:31:19.360Z,62.03
2022-12-04T23:33:46.489Z,55.67
2022-12-04T23:36:14.583Z,51.63
2022-12-04T23:38:42.989Z,52.10
2022-12-04T23:41:23.323Z,49.28
2022-12-04T23:43:51.762Z,45.17
2022-12-04T23:46:22.870Z,48.72
2022-12-04T23:48:50.410Z,47.30
2022-12-04T23:51:19.180Z,53.17
2022-12-04T23:53:47.204Z,50.65
2022-12-04T23:56:19.039Z,53.08
2022-12-04T23:58:48.007Z,48.15
